createdAt,value
2023-03-29T00:02:05.204Z,67.89
2023-03-29T00:04:32.182Z,67.99
2023-03-29T00:07:04.112Z,67.97
2023-03-29T00:09:33.494Z,68.13
2023-03-29T00:12:01.569Z,68.57
2023-03-29T00:14:30.907Z,68.67
2023-03-29T00:16:59.220Z,68.73
2023-03-29T00:19:26.777Z,68.81
2023-03-29T00:21:53.525Z,68.52
2023-03-29T00:24:21.617Z,68.54
2023-03-29T00:26:48.569Z,68.98
2023-03-29T00:29:15.326Z,68.99
2023-03-29T00:31:42.286Z,68.99
2023-03-29T00:34:09.193Z,69.24
2023-03-29T00:36:35.849Z,69.20
2023-03-29T00:39:03.170Z,69.55
2023-03-29T00:41:29.880Z,69.57
2023-03-29T00:44:02.084Z,69.47
2023-03-29T00:46:32.120Z,69.35
2023-03-29T00:49:05.863Z,69.88
2023-03-29T00:51:36.795Z,69.65
2023-03-29T00:54:06.645Z,69.81
2023-03-29T00:56:37.815Z,69.73
2023-03-29T00:59:04.960Z,70.14
2023-03-29T01:01:42.348Z,69.76
2023-03-29T01:04:18.554Z,70.31
2023-03-29T01:06:57.007Z,70.38
2023-03-29T01:09:27.241Z,70.24
2023-03-29T01:11:57.488Z,70.46
2023-03-29T01:14:49.017Z,70.51
2023-03-29T01:17:16.536Z,70.21
2023-03-29T01:19:51.014Z,70.49
2023-03-29T01:22:31.157Z,70.49
2023-03-29T01:25:29.757Z,70.29
2023-03-29T01:28:18.533Z,70.62
2023-03-29T01:31:10.788Z,70.25
2023-03-29T01:33:51.184Z,70.26
2023-03-29T01:36:25.099Z,70.53
2023-03-29T01:39:00.952Z,70.23
2023-03-29T01:41:46.797Z,70.33
2023-03-29T01:44:16.625Z,70.20
2023-03-29T01:46:48.580Z,70.36
2023-03-29T01:49:27.465Z,70.12
2023-03-29T01:52:17.636Z,70.39
2023-03-29T01:54:53.445Z,70.26
2023-03-29T01:57:21.885Z,70.48
2023-03-29T01:59:49.738Z,70.08
2023-03-29T02:02:19.049Z,70.17
2023-03-29T02:04:51.886Z,70.03
2023-03-29T02:07:21.187Z,70.25
2023-03-29T02:09:50.590Z,70.27
2023-03-29T02:12:17.505Z,70.15
2023-03-29T02:14:44.511Z,70.28
2023-03-29T02:17:23.411Z,70.59
2023-03-29T02:19:59.520Z,70.71
2023-03-29T02:22:38.768Z,70.65
2023-03-29T02:25:09.110Z,70.85
2023-03-29T02:27:37.890Z,70.96
2023-03-29T02:30:07.398Z,71.07
2023-03-29T02:32:43.663Z,71.26
2023-03-29T02:35:14.360Z,70.99
2023-03-29T02:37:45.346Z,71.55
2023-03-29T02:40:14.521Z,71.25
2023-03-29T02:42:44.975Z,71.47
2023-03-29T02:45:17.294Z,72.09
2023-03-29T02:47:52.427Z,72.11
2023-03-29T02:50:20.744Z,72.13
2023-03-29T02:52:59.676Z,72.00
2023-03-29T02:55:34.839Z,72.28
2023-03-29T02:58:08.480Z,72.18
2023-03-29T03:00:42.340Z,72.31
2023-03-29T03:03:10.477Z,72.28
2023-03-29T03:05:38.498Z,72.35
2023-03-29T03:08:07.308Z,72.38
2023-03-29T03:10:35.468Z,72.66
2023-03-29T03:13:03.050Z,72.96
2023-03-29T03:15:31.227Z,73.10
2023-03-29T03:17:58.099Z,73.37
2023-03-29T03:20:25.086Z,73.36
2023-03-29T03:22:51.778Z,73.30
2023-03-29T03:25:21.341Z,73.70
2023-03-29T03:27:49.848Z,73.55
2023-03-29T03:30:17.470Z,73.84
2023-03-29T03:32:45.020Z,74.04
2023-03-29T03:35:11.942Z,74.29
2023-03-29T03:37:40.182Z,74.18
2023-03-29T03:40:09.048Z,74.25
2023-03-29T03:42:35.920Z,74.37
2023-03-29T03:45:02.606Z,74.25
2023-03-29T03:47:29.568Z,74.36
2023-03-29T03:49:56.565Z,74.72
2023-03-29T03:52:23.501Z,74.57
2023-03-29T03:54:50.468Z,74.89
2023-03-29T03:57:17.647Z,74.95
2023-03-29T03:59:44.886Z,75.07
2023-03-29T04:02:11.721Z,75.02
2023-03-29T04:04:39.574Z,74.99
2023-03-29T04:07:06.259Z,75.25
2023-03-29T04:09:33.511Z,75.36
2023-03-29T04:12:01.743Z,75.45
2023-03-29T04:14:28.446Z,75.52
2023-03-29T04:16:55.695Z,75.72
2023-03-29T04:19:23.130Z,75.81
2023-03-29T04:21:51.288Z,76.01
2023-03-29T04:24:18.088Z,76.16
2023-03-29T04:26:45.196Z,76.01
2023-03-29T04:29:11.964Z,76.41
2023-03-29T04:31:38.704Z,76.73
2023-03-29T04:34:05.609Z,76.71
2023-03-29T04:36:32.527Z,76.68
2023-03-29T04:39:01.628Z,77.05
2023-03-29T04:41:29.083Z,76.93
2023-03-29T04:43:56.252Z,77.43
2023-03-29T04:46:26.662Z,77.33
2023-03-29T04:48:54.082Z,77.67
2023-03-29T04:51:22.630Z,77.87
2023-03-29T04:53:50.386Z,77.60
2023-03-29T04:56:17.356Z,77.95
2023-03-29T04:58:44.758Z,77.92
2023-03-29T05:01:11.690Z,78.22
2023-03-29T05:03:38.677Z,78.31
2023-03-29T05:06:07.678Z,78.32
2023-03-29T05:08:39.324Z,78.56
2023-03-29T05:11:08.548Z,78.91
2023-03-29T05:13:35.504Z,78.66
2023-03-29T05:16:02.671Z,79.08
2023-03-29T05:18:30.537Z,79.15
2023-03-29T05:20:58.000Z,79.07
2023-03-29T05:23:25.240Z,79.12
2023-03-29T05:25:55.796Z,79.62
2023-03-29T05:28:22.715Z,79.54
2023-03-29T05:31:01.385Z,79.62
2023-03-29T05:33:28.329Z,79.97
2023-03-29T05:36:06.564Z,80.00
2023-03-29T05:38:33.959Z,80.05
2023-03-29T05:41:01.173Z,80.14
2023-03-29T05:43:28.682Z,79.93
2023-03-29T05:45:56.462Z,79.94
2023-03-29T05:48:23.940Z,80.33
2023-03-29T05:50:53.869Z,80.21
2023-03-29T05:53:22.806Z,80.05
2023-03-29T05:55:49.874Z,80.19
2023-03-29T05:58:18.290Z,80.34
2023-03-29T06:00:52.973Z,80.47
2023-03-29T06:03:25.539Z,80.34
2023-03-29T06:05:59.868Z,80.75
2023-03-29T06:08:28.029Z,81.10
2023-03-29T06:11:02.473Z,80.92
2023-03-29T06:13:33.670Z,80.61
2023-03-29T06:16:01.197Z,80.97
2023-03-29T06:18:28.224Z,81.14
2023-03-29T06:20:55.260Z,81.02
2023-03-29T06:23:23.169Z,80.93
2023-03-29T06:25:51.605Z,81.04
2023-03-29T06:28:19.954Z,80.72
2023-03-29T06:30:47.205Z,80.72
2023-03-29T06:33:14.841Z,80.85
2023-03-29T06:35:43.948Z,81.00
2023-03-29T06:38:11.422Z,80.84
2023-03-29T06:40:38.370Z,80.87
2023-03-29T06:43:06.906Z,80.91
2023-03-29T06:45:36.243Z,80.78
2023-03-29T06:48:04.468Z,80.77
2023-03-29T06:50:31.568Z,80.88
2023-03-29T06:52:58.560Z,80.79
2023-03-29T06:55:26.180Z,80.66
2023-03-29T06:57:54.205Z,80.82
2023-03-29T07:00:30.847Z,80.95
2023-03-29T07:02:58.682Z,80.56
2023-03-29T07:05:28.633Z,80.90
2023-03-29T07:08:11.606Z,80.64
2023-03-29T07:10:39.384Z,80.76
2023-03-29T07:13:08.835Z,80.68
2023-03-29T07:15:36.215Z,80.64
2023-03-29T07:18:04.908Z,80.58
2023-03-29T07:20:33.806Z,80.14
2023-03-29T07:23:00.920Z,80.51
2023-03-29T07:25:27.848Z,80.36
2023-03-29T07:27:54.748Z,80.13
2023-03-29T07:30:24.470Z,80.17
2023-03-29T07:32:52.453Z,79.80
2023-03-29T07:35:19.629Z,79.67
2023-03-29T07:37:46.618Z,79.52
2023-03-29T07:40:18.378Z,79.89
2023-03-29T07:42:49.093Z,79.39
2023-03-29T07:45:17.141Z,79.26
2023-03-29T07:47:44.823Z,79.49
2023-03-29T07:50:12.581Z,79.35
2023-03-29T07:52:39.737Z,79.28
2023-03-29T07:55:08.245Z,79.13
2023-03-29T07:57:35.615Z,79.07
2023-03-29T08:00:16.550Z,79.03
2023-03-29T08:02:45.682Z,79.26
2023-03-29T08:05:14.315Z,79.23
2023-03-29T08:07:43.248Z,79.50
2023-03-29T08:10:13.902Z,79.33
2023-03-29T08:12:41.235Z,79.30
2023-03-29T08:15:09.362Z,79.23
2023-03-29T08:17:37.249Z,79.30
2023-03-29T08:20:06.100Z,79.17
2023-03-29T08:22:33.888Z,79.65
2023-03-29T08:25:00.818Z,79.17
2023-03-29T08:27:27.632Z,79.16
2023-03-29T08:29:54.581Z,79.11
2023-03-29T08:32:21.612Z,79.23
2023-03-29T08:34:48.589Z,79.29
2023-03-29T08:37:15.873Z,79.32
2023-03-29T08:39:42.945Z,79.15
2023-03-29T08:42:36.493Z,79.42
2023-03-29T08:45:32.794Z,79.30
2023-03-29T08:48:02.334Z,79.10
2023-03-29T08:50:40.697Z,79.57
2023-03-29T08:53:15.554Z,79.50
2023-03-29T08:55:45.400Z,79.29
2023-03-29T08:58:20.353Z,79.39
2023-03-29T09:00:52.241Z,79.61
2023-03-29T09:03:25.390Z,79.22
2023-03-29T09:06:04.009Z,79.42
2023-03-29T09:08:31.209Z,79.62
2023-03-29T09:11:23.472Z,79.61
2023-03-29T09:14:11.385Z,79.26
2023-03-29T09:16:54.714Z,79.34
2023-03-29T09:19:46.244Z,79.31
2023-03-29T09:22:40.271Z,79.56
2023-03-29T09:25:29.886Z,79.61
2023-03-29T09:28:19.342Z,79.77
2023-03-29T09:31:04.056Z,79.90
2023-03-29T09:33:44.157Z,79.69
2023-03-29T09:36:32.685Z,79.52
2023-03-29T09:38:59.959Z,79.90
2023-03-29T09:41:35.801Z,79.58
2023-03-29T09:44:17.656Z,79.57
2023-03-29T09:46:57.735Z,79.83
2023-03-29T09:49:33.318Z,79.71
2023-03-29T09:52:06.800Z,79.75
2023-03-29T09:54:33.514Z,80.42
2023-03-29T09:57:00.448Z,80.62
2023-03-29T09:59:27.201Z,80.74
2023-03-29T10:01:53.982Z,80.75
2023-03-29T10:04:22.428Z,81.15
2023-03-29T10:06:52.459Z,81.09
2023-03-29T10:09:24.896Z,81.42
2023-03-29T10:11:55.249Z,81.65
2023-03-29T10:14:54.242Z,81.77
2023-03-29T10:17:22.360Z,81.93
2023-03-29T10:20:01.598Z,81.88
2023-03-29T10:22:37.887Z,82.23
2023-03-29T10:25:13.016Z,81.91
2023-03-29T10:27:42.596Z,82.55
2023-03-29T10:30:13.051Z,82.55
2023-03-29T10:32:41.427Z,82.35
2023-03-29T10:35:15.237Z,82.72
2023-03-29T10:37:49.920Z,82.63
2023-03-29T10:40:25.718Z,82.67
2023-03-29T10:42:54.112Z,82.59
2023-03-29T10:45:25.976Z,83.05
2023-03-29T10:47:55.604Z,82.99
2023-03-29T10:50:22.590Z,82.98
2023-03-29T10:52:50.573Z,83.02
2023-03-29T10:55:17.490Z,83.12
2023-03-29T10:57:47.325Z,83.67
2023-03-29T11:00:23.616Z,83.35
2023-03-29T11:03:14.272Z,83.71
2023-03-29T11:06:18.471Z,83.85
2023-03-29T11:09:02.083Z,83.84
2023-03-29T11:12:14.849Z,84.04
2023-03-29T11:15:03.113Z,84.24
2023-03-29T11:18:06.164Z,84.02
2023-03-29T11:20:45.202Z,84.15
2023-03-29T11:23:25.115Z,84.56
2023-03-29T11:26:19.136Z,84.35
2023-03-29T11:29:03.033Z,84.52
2023-03-29T11:31:44.503Z,84.45
2023-03-29T11:34:20.700Z,84.80
2023-03-29T11:36:58.924Z,84.57
2023-03-29T11:39:34.889Z,84.87
2023-03-29T11:42:11.816Z,85.04
2023-03-29T11:44:41.144Z,84.50
2023-03-29T11:47:17.287Z,84.78
2023-03-29T11:50:06.824Z,84.96
2023-03-29T11:52:38.050Z,84.74
2023-03-29T11:55:14.580Z,84.41
2023-03-29T11:57:48.029Z,84.28
2023-03-29T12:00:27.636Z,83.97
2023-03-29T12:02:54.315Z,83.49
2023-03-29T12:05:31.122Z,83.28
2023-03-29T12:08:06.552Z,82.69
2023-03-29T12:10:39.783Z,82.63
2023-03-29T12:13:17.157Z,81.71
2023-03-29T12:16:27.687Z,80.66
2023-03-29T12:19:02.740Z,79.93
2023-03-29T12:21:31.153Z,79.10
2023-03-29T12:23:58.766Z,77.81
2023-03-29T12:26:35.312Z,76.89
2023-03-29T12:29:18.567Z,75.53
2023-03-29T12:32:19.677Z,74.19
2023-03-29T12:34:55.985Z,72.45
2023-03-29T12:37:52.806Z,70.43
2023-03-29T12:40:21.421Z,68.85
2023-03-29T12:43:02.974Z,67.21
2023-03-29T12:45:34.645Z,65.38
2023-03-29T12:48:01.996Z,63.13
2023-03-29T12:50:35.666Z,61.06
2023-03-29T12:53:12.700Z,58.95
2023-03-29T12:55:42.523Z,57.03
2023-03-29T12:58:40.153Z,55.18
2023-03-29T13:01:22.642Z,53.38
2023-03-29T13:03:56.104Z,52.03
2023-03-29T13:06:54.097Z,50.45
2023-03-29T13:09:30.060Z,49.13
2023-03-29T13:12:27.044Z,47.62
2023-03-29T13:15:01.165Z,46.72
2023-03-29T13:17:34.326Z,45.89
2023-03-29T13:20:21.868Z,45.02
2023-03-29T13:22:48.741Z,44.63
2023-03-29T13:25:52.698Z,43.91
2023-03-29T13:28:22.668Z,43.34
2023-03-29T13:30:58.465Z,43.04
2023-03-29T13:33:50.001Z,42.83
2023-03-29T13:36:54.380Z,42.56
2023-03-29T13:39:25.475Z,41.88
2023-03-29T13:41:54.306Z,41.96
2023-03-29T13:44:30.037Z,41.59
2023-03-29T13:47:19.308Z,41.70
2023-03-29T13:49:54.279Z,41.91
2023-03-29T13:52:39.527Z,42.22
2023-03-29T13:55:11.123Z,42.49
2023-03-29T13:57:43.697Z,42.70
2023-03-29T14:00:20.385Z,42.04
2023-03-29T14:03:01.509Z,41.39
2023-03-29T14:05:47.826Z,41.07
2023-03-29T14:08:21.948Z,40.34
2023-03-29T14:10:49.749Z,39.81
2023-03-29T14:13:23.097Z,39.39
2023-03-29T14:15:55.821Z,39.32
2023-03-29T14:18:25.653Z,38.77
2023-03-29T14:20:55.648Z,38.06
2023-03-29T14:23:28.453Z,38.34
2023-03-29T14:25:55.156Z,38.60
2023-03-29T14:28:27.232Z,38.73
2023-03-29T14:30:55.160Z,39.02
2023-03-29T14:33:29.914Z,39.17
2023-03-29T14:35:59.218Z,39.18
2023-03-29T14:38:27.517Z,39.34
2023-03-29T14:40:59.452Z,39.21
2023-03-29T14:43:31.100Z,39.19
2023-03-29T14:45:58.751Z,39.38
2023-03-29T14:48:26.589Z,39.06
2023-03-29T14:50:53.643Z,38.70
2023-03-29T14:53:22.960Z,37.45
2023-03-29T14:55:52.601Z,36.62
2023-03-29T14:58:37.238Z,35.79
2023-03-29T15:01:16.258Z,35.76
2023-03-29T15:04:10.570Z,36.22
2023-03-29T15:06:47.047Z,36.65
2023-03-29T15:09:27.217Z,36.93
2023-03-29T15:11:56.592Z,37.06
2023-03-29T15:14:27.054Z,37.35
2023-03-29T15:17:02.945Z,37.52
2023-03-29T15:19:29.720Z,36.95
2023-03-29T15:21:56.375Z,36.15
2023-03-29T15:24:27.944Z,35.54
2023-03-29T15:27:03.791Z,35.60
2023-03-29T15:29:41.282Z,36.17
2023-03-29T15:32:09.942Z,36.23
2023-03-29T15:34:38.377Z,36.42
2023-03-29T15:37:05.092Z,36.99
2023-03-29T15:39:32.585Z,38.04
2023-03-29T15:41:59.582Z,38.80
2023-03-29T15:44:32.673Z,39.43
2023-03-29T15:47:00.207Z,40.45
2023-03-29T15:49:27.294Z,40.70
2023-03-29T15:51:54.840Z,40.58
2023-03-29T15:54:22.450Z,40.54
2023-03-29T15:56:53.625Z,40.90
2023-03-29T15:59:20.900Z,41.59
2023-03-29T16:01:48.216Z,42.33
2023-03-29T16:04:20.700Z,43.04
2023-03-29T16:06:53.356Z,43.17
2023-03-29T16:09:21.713Z,43.81
2023-03-29T16:11:49.613Z,44.43
2023-03-29T16:14:23.207Z,45.03
2023-03-29T16:16:51.467Z,45.56
2023-03-29T16:19:18.472Z,46.07
2023-03-29T16:21:45.779Z,45.94
2023-03-29T16:24:15.658Z,46.22
2023-03-29T16:26:42.807Z,46.17
2023-03-29T16:29:09.648Z,45.74
2023-03-29T16:31:36.443Z,45.54
2023-03-29T16:34:04.397Z,45.50
2023-03-29T16:36:33.171Z,44.76
2023-03-29T16:39:00.339Z,43.97
2023-03-29T16:41:27.169Z,43.28
2023-03-29T16:43:54.187Z,42.60
2023-03-29T16:46:21.097Z,42.10
2023-03-29T16:48:48.972Z,41.83
2023-03-29T16:51:15.892Z,41.51
2023-03-29T16:53:43.291Z,41.35
2023-03-29T16:56:10.999Z,41.13
2023-03-29T16:58:41.564Z,41.22
2023-03-29T17:01:13.457Z,41.59
2023-03-29T17:03:41.113Z,41.70
2023-03-29T17:06:09.193Z,41.92
2023-03-29T17:08:36.736Z,42.20
2023-03-29T17:11:04.240Z,42.36
2023-03-29T17:13:31.230Z,42.58
2023-03-29T17:15:58.218Z,42.64
2023-03-29T17:18:28.007Z,42.03
2023-03-29T17:20:58.771Z,41.38
2023-03-29T17:23:25.931Z,40.99
2023-03-29T17:25:55.686Z,40.92
2023-03-29T17:28:23.234Z,40.79
2023-03-29T17:30:49.951Z,41.17
2023-03-29T17:33:18.176Z,41.55
2023-03-29T17:35:46.042Z,41.63
2023-03-29T17:38:12.841Z,42.26
2023-03-29T17:40:39.743Z,42.72
2023-03-29T17:43:06.618Z,43.17
2023-03-29T17:45:35.347Z,43.65
2023-03-29T17:48:04.763Z,44.29
2023-03-29T17:50:33.127Z,44.58
2023-03-29T17:52:59.811Z,45.31
2023-03-29T17:55:27.468Z,46.02
2023-03-29T17:57:54.342Z,46.11
2023-03-29T18:00:21.358Z,46.83
2023-03-29T18:02:48.213Z,47.17
2023-03-29T18:05:15.243Z,47.77
2023-03-29T18:07:41.890Z,47.88
2023-03-29T18:10:08.911Z,48.40
2023-03-29T18:12:36.449Z,48.72
2023-03-29T18:15:04.145Z,48.87
2023-03-29T18:17:31.374Z,49.39
2023-03-29T18:19:58.182Z,49.70
2023-03-29T18:22:25.033Z,50.04
2023-03-29T18:24:51.825Z,50.05
2023-03-29T18:27:19.048Z,50.48
2023-03-29T18:29:45.889Z,50.60
2023-03-29T18:32:13.126Z,51.18
2023-03-29T18:34:40.087Z,51.00
2023-03-29T18:37:07.487Z,51.35
2023-03-29T18:39:34.814Z,51.90
2023-03-29T18:42:02.822Z,51.74
2023-03-29T18:44:29.637Z,52.02
2023-03-29T18:46:56.415Z,52.42
2023-03-29T18:49:39.497Z,52.56
2023-03-29T18:52:06.160Z,52.74
2023-03-29T18:54:32.910Z,53.33
2023-03-29T18:57:00.742Z,53.52
2023-03-29T18:59:27.653Z,53.63
2023-03-29T19:01:54.514Z,53.91
2023-03-29T19:04:21.497Z,54.23
2023-03-29T19:06:49.385Z,54.41
2023-03-29T19:09:16.276Z,54.75
2023-03-29T19:11:43.815Z,54.81
2023-03-29T19:14:10.612Z,54.77
2023-03-29T19:16:37.542Z,55.21
2023-03-29T19:19:06.944Z,55.40
2023-03-29T19:21:33.756Z,55.47
2023-03-29T19:24:01.166Z,55.44
2023-03-29T19:26:33.452Z,55.88
2023-03-29T19:29:02.340Z,55.95
2023-03-29T19:31:29.179Z,55.91
2023-03-29T19:33:56.486Z,56.03
2023-03-29T19:36:23.146Z,56.01
2023-03-29T19:38:50.182Z,56.74
2023-03-29T19:41:17.517Z,56.30
2023-03-29T19:43:44.208Z,56.75
2023-03-29T19:46:12.912Z,56.87
2023-03-29T19:48:40.278Z,57.22
2023-03-29T19:51:08.032Z,57.38
2023-03-29T19:53:38.166Z,57.60
2023-03-29T19:56:07.898Z,57.73
2023-03-29T19:58:34.748Z,58.10
2023-03-29T20:01:01.627Z,58.01
2023-03-29T20:03:28.728Z,57.96
2023-03-29T20:05:56.693Z,58.15
2023-03-29T20:08:24.892Z,58.54
2023-03-29T20:15:51.886Z,58.77
2023-03-29T20:18:18.841Z,58.91
2023-03-29T20:20:46.875Z,58.62
2023-03-29T20:23:15.634Z,59.04
2023-03-29T20:25:42.612Z,58.83
2023-03-29T20:28:09.398Z,59.23
2023-03-29T20:30:36.416Z,59.40
2023-03-29T20:33:04.346Z,59.37
2023-03-29T20:35:31.039Z,59.49
2023-03-29T20:37:57.865Z,59.23
2023-03-29T20:40:24.914Z,59.61
2023-03-29T20:42:54.289Z,59.25
2023-03-29T20:45:21.162Z,59.47
2023-03-29T20:47:57.911Z,59.86
2023-03-29T20:50:30.317Z,59.56
2023-03-29T20:52:57.412Z,59.82
2023-03-29T20:55:24.454Z,60.02
2023-03-29T20:57:54.281Z,59.94
2023-03-29T21:00:24.163Z,60.16
2023-03-29T21:02:52.485Z,60.55
2023-03-29T21:05:19.509Z,60.60
2023-03-29T21:07:48.138Z,60.78
2023-03-29T21:10:15.889Z,61.29
2023-03-29T21:12:42.947Z,61.47
2023-03-29T21:15:11.464Z,61.41
2023-03-29T21:17:38.187Z,61.70
2023-03-29T21:20:11.172Z,61.53
2023-03-29T21:22:39.418Z,61.50
2023-03-29T21:25:08.244Z,61.74
2023-03-29T21:27:34.996Z,61.62
2023-03-29T21:30:02.908Z,61.80
2023-03-29T21:32:29.631Z,61.73
2023-03-29T21:34:56.436Z,61.77
2023-03-29T21:37:23.460Z,61.40
2023-03-29T21:39:50.539Z,61.41
2023-03-29T21:42:17.748Z,61.84
2023-03-29T21:44:45.087Z,61.60
2023-03-29T21:47:11.792Z,61.69
2023-03-29T21:49:39.769Z,61.72
2023-03-29T21:52:07.271Z,61.66
2023-03-29T21:54:34.282Z,61.58
2023-03-29T21:57:01.369Z,61.94
2023-03-29T21:59:28.217Z,61.97
2023-03-29T22:01:55.218Z,62.08
2023-03-29T22:04:33.541Z,61.80
2023-03-29T22:07:03.459Z,62.14
2023-03-29T22:09:30.285Z,61.99
2023-03-29T22:11:59.996Z,61.97
2023-03-29T22:14:29.589Z,61.77
2023-03-29T22:16:56.385Z,62.03
2023-03-29T22:19:23.115Z,62.10
2023-03-29T22:21:51.500Z,61.80
2023-03-29T22:24:18.975Z,62.19
2023-03-29T22:26:45.990Z,61.98
2023-03-29T22:29:12.837Z,61.87
2023-03-29T22:31:39.714Z,62.17
2023-03-29T22:34:06.741Z,61.87
2023-03-29T22:36:33.767Z,61.88
2023-03-29T22:39:00.771Z,61.78
2023-03-29T22:41:28.337Z,61.78
2023-03-29T22:43:57.897Z,61.98
2023-03-29T22:46:25.521Z,61.98
2023-03-29T22:48:53.137Z,62.03
2023-03-29T22:51:20.530Z,62.14
2023-03-29T22:53:47.706Z,62.11
2023-03-29T22:56:15.979Z,62.88
2023-03-29T22:58:43.148Z,62.78
2023-03-29T23:01:10.332Z,62.65
2023-03-29T23:03:37.102Z,63.12
2023-03-29T23:06:04.649Z,63.23
2023-03-29T23:08:32.985Z,63.69
2023-03-29T23:11:00.690Z,63.89
2023-03-29T23:13:29.419Z,64.47
2023-03-29T23:15:59.214Z,64.81
2023-03-29T23:18:28.670Z,65.17
2023-03-29T23:20:57.369Z,65.61
2023-03-29T23:23:25.565Z,66.10
2023-03-29T23:25:53.373Z,66.13
2023-03-29T23:28:24.816Z,66.77
2023-03-29T23:31:00.559Z,67.37
2023-03-29T23:33:30.723Z,67.62
2023-03-29T23:35:58.827Z,68.05
2023-03-29T23:38:26.860Z,68.15
2023-03-29T23:41:00.522Z,68.34
2023-03-29T23:43:32.640Z,68.94
2023-03-29T23:46:02.737Z,69.28
2023-03-29T23:48:29.789Z,69.59
2023-03-29T23:50:59.436Z,70.23
2023-03-29T23:53:29.051Z,70.44
2023-03-29T23:56:00.576Z,70.56
2023-03-29T23:58:36.186Z,70.91
